sensor_id;sensor_type;location;lat;lon;timestamp;P1;durP1;ratioP1;P2;durP2;ratioP2
75129;SDS011;63703;44.716;37.846;2023-03-29T00:01:57;13.52;;;5.05;;
75129;SDS011;63703;44.716;37.846;2023-03-29T00:04:23;13.65;;;5.47;;
75129;SDS011;63703;44.716;37.846;2023-03-29T00:06:54;14.95;;;4.82;;
75129;SDS011;63703;44.716;37.846;2023-03-29T00:09:21;14.27;;;5.43;;
75129;SDS011;63703;44.716;37.846;2023-03-29T00:11:50;9.98;;;4.53;;
75129;SDS011;63703;44.716;37.846;2023-03-29T00:14:17;12.77;;;5.15;;
75129;SDS011;63703;44.716;37.846;2023-03-29T00:16:42;11.43;;;4.57;;
75129;SDS011;63703;44.716;37.846;2023-03-29T00:19:10;12.85;;;4.65;;
75129;SDS011;63703;44.716;37.846;2023-03-29T00:21:36;10.20;;;4.60;;
75129;SDS011;63703;44.716;37.846;2023-03-29T00:24:02;12.57;;;4.63;;
75129;SDS011;63703;44.716;37.846;2023-03-29T00:26:28;11.63;;;4.38;;
75129;SDS011;63703;44.716;37.846;2023-03-29T00:28:54;10.73;;;4.28;;
75129;SDS011;63703;44.716;37.846;2023-03-29T00:31:20;7.15;;;2.75;;
75129;SDS011;63703;44.716;37.846;2023-03-29T00:33:46;7.00;;;3.03;;
75129;SDS011;63703;44.716;37.846;2023-03-29T00:36:12;7.10;;;4.43;;
75129;SDS011;63703;44.716;37.846;2023-03-29T00:38:39;5.75;;;4.00;;
75129;SDS011;63703;44.716;37.846;2023-03-29T00:41:05;6.50;;;3.65;;
75129;SDS011;63703;44.716;37.846;2023-03-29T00:43:51;10.40;;;3.80;;
75129;SDS011;63703;44.716;37.846;2023-03-29T00:46:20;6.05;;;3.58;;
75129;SDS011;63703;44.716;37.846;2023-03-29T00:48:47;8.77;;;3.42;;
75129;SDS011;63703;44.716;37.846;2023-03-29T00:51:14;7.63;;;3.88;;
75129;SDS011;63703;44.716;37.846;2023-03-29T00:53:45;9.05;;;4.53;;
75129;SDS011;63703;44.716;37.846;2023-03-29T00:56:30;8.23;;;4.18;;
75129;SDS011;63703;44.716;37.846;2023-03-29T00:59:06;16.13;;;3.58;;
75129;SDS011;63703;44.716;37.846;2023-03-29T01:01:52;8.65;;;3.80;;
75129;SDS011;63703;44.716;37.846;2023-03-29T01:07:11;9.85;;;4.15;;
75129;SDS011;63703;44.716;37.846;2023-03-29T01:10:00;6.90;;;3.50;;
75129;SDS011;63703;44.716;37.846;2023-03-29T01:12:34;13.38;;;5.32;;
75129;SDS011;63703;44.716;37.846;2023-03-29T01:15:05;6.05;;;3.35;;
75129;SDS011;63703;44.716;37.846;2023-03-29T01:17:35;11.05;;;3.58;;
75129;SDS011;63703;44.716;37.846;2023-03-29T01:20:19;7.38;;;4.30;;
75129;SDS011;63703;44.716;37.846;2023-03-29T01:25:55;12.63;;;3.22;;
75129;SDS011;63703;44.716;37.846;2023-03-29T01:31:17;8.45;;;3.35;;
75129;SDS011;63703;44.716;37.846;2023-03-29T01:33:54;6.68;;;2.83;;
75129;SDS011;63703;44.716;37.846;2023-03-29T01:36:28;6.55;;;3.42;;
75129;SDS011;63703;44.716;37.846;2023-03-29T01:39:02;6.53;;;4.18;;
75129;SDS011;63703;44.716;37.846;2023-03-29T01:41:45;7.07;;;4.68;;
75129;SDS011;63703;44.716;37.846;2023-03-29T01:44:28;7.18;;;3.90;;
75129;SDS011;63703;44.716;37.846;2023-03-29T01:47:07;12.63;;;5.32;;
75129;SDS011;63703;44.716;37.846;2023-03-29T01:49:44;11.45;;;6.15;;
75129;SDS011;63703;44.716;37.846;2023-03-29T01:52:19;12.57;;;6.43;;
75129;SDS011;63703;44.716;37.846;2023-03-29T01:55:02;12.43;;;5.50;;
75129;SDS011;63703;44.716;37.846;2023-03-29T01:57:33;9.93;;;5.28;;
75129;SDS011;63703;44.716;37.846;2023-03-29T02:00:00;11.45;;;4.63;;
75129;SDS011;63703;44.716;37.846;2023-03-29T02:02:39;12.27;;;5.38;;
75129;SDS011;63703;44.716;37.846;2023-03-29T02:05:07;9.88;;;6.45;;
75129;SDS011;63703;44.716;37.846;2023-03-29T02:07:34;5.38;;;1.75;;
75129;SDS011;63703;44.716;37.846;2023-03-29T02:10:04;3.72;;;1.90;;
75129;SDS011;63703;44.716;37.846;2023-03-29T02:12:32;4.15;;;1.92;;
75129;SDS011;63703;44.716;37.846;2023-03-29T02:15:00;5.35;;;3.60;;
75129;SDS011;63703;44.716;37.846;2023-03-29T02:17:27;3.95;;;2.67;;
75129;SDS011;63703;44.716;37.846;2023-03-29T02:19:54;3.47;;;2.38;;
75129;SDS011;63703;44.716;37.846;2023-03-29T02:22:40;3.45;;;1.77;;
75129;SDS011;63703;44.716;37.846;2023-03-29T02:25:14;2.10;;;1.08;;
75129;SDS011;63703;44.716;37.846;2023-03-29T02:27:42;3.63;;;1.17;;
75129;SDS011;63703;44.716;37.846;2023-03-29T02:30:08;1.63;;;1.15;;
75129;SDS011;63703;44.716;37.846;2023-03-29T02:35:34;1.77;;;1.27;;
75129;SDS011;63703;44.716;37.846;2023-03-29T02:38:06;1.80;;;1.00;;
75129;SDS011;63703;44.716;37.846;2023-03-29T02:40:35;2.63;;;2.33;;
75129;SDS011;63703;44.716;37.846;2023-03-29T02:43:04;1.63;;;0.82;;
75129;SDS011;63703;44.716;37.846;2023-03-29T02:45:31;1.95;;;0.80;;
75129;SDS011;63703;44.716;37.846;2023-03-29T02:48:01;2.20;;;1.80;;
75129;SDS011;63703;44.716;37.846;2023-03-29T02:50:32;2.75;;;2.40;;
75129;SDS011;63703;44.716;37.846;2023-03-29T02:53:02;2.00;;;1.25;;
75129;SDS011;63703;44.716;37.846;2023-03-29T02:55:34;3.00;;;1.92;;
75129;SDS011;63703;44.716;37.846;2023-03-29T02:58:01;3.50;;;1.60;;
75129;SDS011;63703;44.716;37.846;2023-03-29T03:00:34;2.55;;;1.73;;
75129;SDS011;63703;44.716;37.846;2023-03-29T03:03:03;2.92;;;1.77;;
75129;SDS011;63703;44.716;37.846;2023-03-29T03:05:30;1.75;;;1.33;;
75129;SDS011;63703;44.716;37.846;2023-03-29T03:07:56;2.13;;;1.10;;
75129;SDS011;63703;44.716;37.846;2023-03-29T03:10:22;1.98;;;1.27;;
75129;SDS011;63703;44.716;37.846;2023-03-29T03:12:48;2.80;;;1.30;;
75129;SDS011;63703;44.716;37.846;2023-03-29T03:15:15;2.20;;;1.70;;
75129;SDS011;63703;44.716;37.846;2023-03-29T03:17:41;1.80;;;1.27;;
75129;SDS011;63703;44.716;37.846;2023-03-29T03:20:07;1.25;;;0.77;;
75129;SDS011;63703;44.716;37.846;2023-03-29T03:22:39;2.20;;;1.95;;
75129;SDS011;63703;44.716;37.846;2023-03-29T03:25:06;1.55;;;1.08;;
75129;SDS011;63703;44.716;37.846;2023-03-29T03:27:35;2.72;;;1.42;;
75129;SDS011;63703;44.716;37.846;2023-03-29T03:30:02;2.38;;;1.48;;
75129;SDS011;63703;44.716;37.846;2023-03-29T03:32:50;1.80;;;1.40;;
75129;SDS011;63703;44.716;37.846;2023-03-29T03:35:44;1.95;;;1.10;;
75129;SDS011;63703;44.716;37.846;2023-03-29T03:38:13;2.58;;;1.52;;
75129;SDS011;63703;44.716;37.846;2023-03-29T03:40:41;2.45;;;1.73;;
75129;SDS011;63703;44.716;37.846;2023-03-29T03:43:07;1.95;;;1.65;;
75129;SDS011;63703;44.716;37.846;2023-03-29T03:45:33;1.80;;;1.67;;
75129;SDS011;63703;44.716;37.846;2023-03-29T03:48:08;1.23;;;0.93;;
75129;SDS011;63703;44.716;37.846;2023-03-29T03:50:57;2.05;;;1.85;;
75129;SDS011;63703;44.716;37.846;2023-03-29T03:53:27;1.58;;;1.35;;
75129;SDS011;63703;44.716;37.846;2023-03-29T03:56:16;1.90;;;1.20;;
75129;SDS011;63703;44.716;37.846;2023-03-29T03:59:01;1.83;;;1.00;;
75129;SDS011;63703;44.716;37.846;2023-03-29T04:01:32;1.50;;;1.17;;
75129;SDS011;63703;44.716;37.846;2023-03-29T04:04:11;1.05;;;0.73;;
75129;SDS011;63703;44.716;37.846;2023-03-29T04:06:39;1.45;;;0.68;;
75129;SDS011;63703;44.716;37.846;2023-03-29T04:09:28;1.25;;;0.63;;
75129;SDS011;63703;44.716;37.846;2023-03-29T04:12:09;2.03;;;1.83;;
75129;SDS011;63703;44.716;37.846;2023-03-29T04:14:38;2.58;;;1.85;;
75129;SDS011;63703;44.716;37.846;2023-03-29T04:17:08;2.85;;;2.17;;
75129;SDS011;63703;44.716;37.846;2023-03-29T04:19:49;1.63;;;1.30;;
75129;SDS011;63703;44.716;37.846;2023-03-29T04:22:16;2.55;;;1.45;;
75129;SDS011;63703;44.716;37.846;2023-03-29T04:24:42;2.75;;;2.55;;
75129;SDS011;63703;44.716;37.846;2023-03-29T04:27:46;1.55;;;1.20;;
75129;SDS011;63703;44.716;37.846;2023-03-29T04:30:34;1.45;;;1.05;;
75129;SDS011;63703;44.716;37.846;2023-03-29T04:33:09;1.67;;;1.38;;
75129;SDS011;63703;44.716;37.846;2023-03-29T04:35:37;1.83;;;1.65;;
75129;SDS011;63703;44.716;37.846;2023-03-29T04:38:05;1.92;;;1.33;;
75129;SDS011;63703;44.716;37.846;2023-03-29T04:40:35;1.52;;;1.30;;
75129;SDS011;63703;44.716;37.846;2023-03-29T04:43:09;2.75;;;2.55;;
75129;SDS011;63703;44.716;37.846;2023-03-29T04:45:44;1.50;;;0.90;;
75129;SDS011;63703;44.716;37.846;2023-03-29T04:48:18;1.60;;;1.08;;
75129;SDS011;63703;44.716;37.846;2023-03-29T04:50:44;2.58;;;2.38;;
75129;SDS011;63703;44.716;37.846;2023-03-29T04:53:12;1.92;;;1.77;;
75129;SDS011;63703;44.716;37.846;2023-03-29T04:55:38;2.50;;;2.13;;
75129;SDS011;63703;44.716;37.846;2023-03-29T04:58:07;1.40;;;0.90;;
75129;SDS011;63703;44.716;37.846;2023-03-29T05:00:35;1.65;;;1.20;;
75129;SDS011;63703;44.716;37.846;2023-03-29T05:03:26;1.23;;;0.70;;
75129;SDS011;63703;44.716;37.846;2023-03-29T05:06:05;1.92;;;1.42;;
75129;SDS011;63703;44.716;37.846;2023-03-29T05:08:35;1.80;;;1.42;;
75129;SDS011;63703;44.716;37.846;2023-03-29T05:11:24;2.67;;;1.27;;
75129;SDS011;63703;44.716;37.846;2023-03-29T05:13:51;1.98;;;1.27;;
75129;SDS011;63703;44.716;37.846;2023-03-29T05:16:17;2.15;;;1.63;;
75129;SDS011;63703;44.716;37.846;2023-03-29T05:18:43;1.95;;;1.45;;
75129;SDS011;63703;44.716;37.846;2023-03-29T05:21:10;1.88;;;1.15;;
75129;SDS011;63703;44.716;37.846;2023-03-29T05:23:39;1.95;;;1.45;;
75129;SDS011;63703;44.716;37.846;2023-03-29T05:26:21;2.20;;;1.63;;
75129;SDS011;63703;44.716;37.846;2023-03-29T05:28:50;2.00;;;1.58;;
75129;SDS011;63703;44.716;37.846;2023-03-29T05:31:17;1.98;;;0.93;;
75129;SDS011;63703;44.716;37.846;2023-03-29T05:33:48;2.20;;;1.77;;
75129;SDS011;63703;44.716;37.846;2023-03-29T05:36:16;2.15;;;1.85;;
75129;SDS011;63703;44.716;37.846;2023-03-29T05:41:13;2.25;;;1.58;;
75129;SDS011;63703;44.716;37.846;2023-03-29T05:43:42;2.47;;;1.50;;
75129;SDS011;63703;44.716;37.846;2023-03-29T05:46:09;2.45;;;1.30;;
75129;SDS011;63703;44.716;37.846;2023-03-29T05:48:40;2.75;;;1.48;;
75129;SDS011;63703;44.716;37.846;2023-03-29T05:51:07;3.15;;;1.25;;
75129;SDS011;63703;44.716;37.846;2023-03-29T05:53:34;1.55;;;0.98;;
75129;SDS011;63703;44.716;37.846;2023-03-29T05:56:00;2.05;;;1.67;;
75129;SDS011;63703;44.716;37.846;2023-03-29T05:58:28;2.97;;;2.45;;
75129;SDS011;63703;44.716;37.846;2023-03-29T06:00:55;2.17;;;1.25;;
75129;SDS011;63703;44.716;37.846;2023-03-29T06:03:35;3.63;;;2.10;;
75129;SDS011;63703;44.716;37.846;2023-03-29T06:06:03;2.08;;;1.15;;
75129;SDS011;63703;44.716;37.846;2023-03-29T06:08:31;4.82;;;1.88;;
75129;SDS011;63703;44.716;37.846;2023-03-29T06:11:22;4.00;;;2.17;;
75129;SDS011;63703;44.716;37.846;2023-03-29T06:14:07;3.00;;;1.50;;
75129;SDS011;63703;44.716;37.846;2023-03-29T06:19:05;2.72;;;1.48;;
75129;SDS011;63703;44.716;37.846;2023-03-29T06:21:32;2.17;;;1.50;;
75129;SDS011;63703;44.716;37.846;2023-03-29T06:23:59;2.17;;;1.20;;
75129;SDS011;63703;44.716;37.846;2023-03-29T06:26:28;2.92;;;1.92;;
75129;SDS011;63703;44.716;37.846;2023-03-29T06:28:54;2.72;;;2.05;;
75129;SDS011;63703;44.716;37.846;2023-03-29T06:31:21;2.72;;;1.88;;
75129;SDS011;63703;44.716;37.846;2023-03-29T06:33:50;3.80;;;2.03;;
75129;SDS011;63703;44.716;37.846;2023-03-29T06:36:28;3.63;;;1.35;;
75129;SDS011;63703;44.716;37.846;2023-03-29T06:38:54;4.20;;;3.30;;
75129;SDS011;63703;44.716;37.846;2023-03-29T06:41:34;4.63;;;2.65;;
75129;SDS011;63703;44.716;37.846;2023-03-29T06:44:21;3.83;;;3.17;;
75129;SDS011;63703;44.716;37.846;2023-03-29T06:46:56;3.83;;;2.58;;
75129;SDS011;63703;44.716;37.846;2023-03-29T06:49:22;2.95;;;2.63;;
75129;SDS011;63703;44.716;37.846;2023-03-29T06:52:17;3.42;;;2.22;;
75129;SDS011;63703;44.716;37.846;2023-03-29T06:54:45;3.35;;;2.67;;
75129;SDS011;63703;44.716;37.846;2023-03-29T06:57:11;3.28;;;2.33;;
75129;SDS011;63703;44.716;37.846;2023-03-29T06:59:38;2.58;;;2.10;;
75129;SDS011;63703;44.716;37.846;2023-03-29T07:02:14;3.08;;;1.92;;
75129;SDS011;63703;44.716;37.846;2023-03-29T07:04:49;3.83;;;1.85;;
75129;SDS011;63703;44.716;37.846;2023-03-29T07:07:22;4.13;;;2.40;;
75129;SDS011;63703;44.716;37.846;2023-03-29T07:10:09;2.45;;;1.63;;
75129;SDS011;63703;44.716;37.846;2023-03-29T07:12:55;3.08;;;2.25;;
75129;SDS011;63703;44.716;37.846;2023-03-29T07:15:22;3.88;;;3.08;;
75129;SDS011;63703;44.716;37.846;2023-03-29T07:18:20;2.85;;;2.00;;
75129;SDS011;63703;44.716;37.846;2023-03-29T07:20:46;2.72;;;1.73;;
75129;SDS011;63703;44.716;37.846;2023-03-29T07:23:13;3.72;;;1.30;;
75129;SDS011;63703;44.716;37.846;2023-03-29T07:25:40;1.92;;;1.20;;
75129;SDS011;63703;44.716;37.846;2023-03-29T07:28:07;2.47;;;1.83;;
75129;SDS011;63703;44.716;37.846;2023-03-29T07:30:34;3.17;;;1.88;;
75129;SDS011;63703;44.716;37.846;2023-03-29T07:33:15;2.28;;;1.08;;
75129;SDS011;63703;44.716;37.846;2023-03-29T07:35:49;2.75;;;1.55;;
75129;SDS011;63703;44.716;37.846;2023-03-29T07:38:16;2.17;;;1.33;;
75129;SDS011;63703;44.716;37.846;2023-03-29T07:41:06;2.33;;;1.60;;
75129;SDS011;63703;44.716;37.846;2023-03-29T07:43:46;2.30;;;2.05;;
75129;SDS011;63703;44.716;37.846;2023-03-29T07:46:15;1.58;;;0.90;;
75129;SDS011;63703;44.716;37.846;2023-03-29T07:48:42;2.13;;;1.27;;
75129;SDS011;63703;44.716;37.846;2023-03-29T07:51:11;1.95;;;1.70;;
75129;SDS011;63703;44.716;37.846;2023-03-29T07:53:46;2.30;;;1.75;;
75129;SDS011;63703;44.716;37.846;2023-03-29T07:56:36;2.75;;;1.23;;
75129;SDS011;63703;44.716;37.846;2023-03-29T07:59:25;1.92;;;1.38;;
75129;SDS011;63703;44.716;37.846;2023-03-29T08:02:04;2.53;;;2.33;;
75129;SDS011;63703;44.716;37.846;2023-03-29T08:04:37;2.72;;;2.05;;
75129;SDS011;63703;44.716;37.846;2023-03-29T08:07:16;2.70;;;2.50;;
75129;SDS011;63703;44.716;37.846;2023-03-29T08:10:10;1.27;;;0.98;;
75129;SDS011;63703;44.716;37.846;2023-03-29T08:12:53;2.15;;;1.95;;
75129;SDS011;63703;44.716;37.846;2023-03-29T08:15:26;2.60;;;2.40;;
75129;SDS011;63703;44.716;37.846;2023-03-29T08:17:52;1.50;;;1.05;;
75129;SDS011;63703;44.716;37.846;2023-03-29T08:20:19;1.50;;;1.02;;
75129;SDS011;63703;44.716;37.846;2023-03-29T08:22:48;1.85;;;1.50;;
75129;SDS011;63703;44.716;37.846;2023-03-29T08:25:20;1.42;;;1.02;;
75129;SDS011;63703;44.716;37.846;2023-03-29T08:27:52;2.00;;;1.60;;
75129;SDS011;63703;44.716;37.846;2023-03-29T08:30:37;2.15;;;1.95;;
75129;SDS011;63703;44.716;37.846;2023-03-29T08:33:08;3.08;;;1.42;;
75129;SDS011;63703;44.716;37.846;2023-03-29T08:35:35;1.90;;;1.55;;
75129;SDS011;63703;44.716;37.846;2023-03-29T08:38:10;1.80;;;1.55;;
75129;SDS011;63703;44.716;37.846;2023-03-29T08:40:37;1.90;;;1.17;;
75129;SDS011;63703;44.716;37.846;2023-03-29T08:49:35;1.30;;;0.73;;
75129;SDS011;63703;44.716;37.846;2023-03-29T08:52:12;1.73;;;1.63;;
75129;SDS011;63703;44.716;37.846;2023-03-29T08:55:12;3.35;;;3.13;;
75129;SDS011;63703;44.716;37.846;2023-03-29T08:58:19;1.63;;;1.45;;
75129;SDS011;63703;44.716;37.846;2023-03-29T09:00:53;1.23;;;0.93;;
75129;SDS011;63703;44.716;37.846;2023-03-29T09:06:41;1.30;;;0.65;;
75129;SDS011;63703;44.716;37.846;2023-03-29T09:09:17;1.65;;;1.17;;
75129;SDS011;63703;44.716;37.846;2023-03-29T09:25:04;1.38;;;1.15;;
75129;SDS011;63703;44.716;37.846;2023-03-29T09:27:53;1.70;;;0.73;;
75129;SDS011;63703;44.716;37.846;2023-03-29T09:30:49;2.20;;;1.25;;
75129;SDS011;63703;44.716;37.846;2023-03-29T09:33:23;1.52;;;1.02;;
75129;SDS011;63703;44.716;37.846;2023-03-29T09:38:48;1.50;;;1.10;;
75129;SDS011;63703;44.716;37.846;2023-03-29T09:41:21;1.85;;;1.10;;
75129;SDS011;63703;44.716;37.846;2023-03-29T09:44:21;1.73;;;1.10;;
75129;SDS011;63703;44.716;37.846;2023-03-29T09:46:52;1.95;;;1.75;;
75129;SDS011;63703;44.716;37.846;2023-03-29T09:49:30;1.65;;;1.27;;
75129;SDS011;63703;44.716;37.846;2023-03-29T09:52:03;1.58;;;1.23;;
75129;SDS011;63703;44.716;37.846;2023-03-29T09:54:36;1.42;;;0.95;;
75129;SDS011;63703;44.716;37.846;2023-03-29T09:57:20;3.88;;;1.40;;
75129;SDS011;63703;44.716;37.846;2023-03-29T09:59:48;1.80;;;1.20;;
75129;SDS011;63703;44.716;37.846;2023-03-29T10:02:17;1.98;;;1.85;;
75129;SDS011;63703;44.716;37.846;2023-03-29T10:04:44;1.13;;;0.55;;
75129;SDS011;63703;44.716;37.846;2023-03-29T10:07:19;1.73;;;0.98;;
75129;SDS011;63703;44.716;37.846;2023-03-29T10:09:56;1.60;;;1.02;;
75129;SDS011;63703;44.716;37.846;2023-03-29T10:12:23;1.55;;;0.75;;
75129;SDS011;63703;44.716;37.846;2023-03-29T10:14:52;1.58;;;1.02;;
75129;SDS011;63703;44.716;37.846;2023-03-29T10:17:23;1.75;;;0.88;;
75129;SDS011;63703;44.716;37.846;2023-03-29T10:19:57;2.35;;;1.48;;
75129;SDS011;63703;44.716;37.846;2023-03-29T10:22:31;1.85;;;1.20;;
75129;SDS011;63703;44.716;37.846;2023-03-29T10:24:59;1.50;;;1.15;;
75129;SDS011;63703;44.716;37.846;2023-03-29T10:27:27;1.25;;;0.75;;
75129;SDS011;63703;44.716;37.846;2023-03-29T10:29:55;1.48;;;1.33;;
75129;SDS011;63703;44.716;37.846;2023-03-29T10:32:33;1.83;;;1.58;;
75129;SDS011;63703;44.716;37.846;2023-03-29T10:35:07;1.58;;;1.15;;
75129;SDS011;63703;44.716;37.846;2023-03-29T10:37:43;2.10;;;1.00;;
75129;SDS011;63703;44.716;37.846;2023-03-29T10:40:17;1.65;;;1.15;;
75129;SDS011;63703;44.716;37.846;2023-03-29T10:42:48;1.35;;;1.00;;
75129;SDS011;63703;44.716;37.846;2023-03-29T10:45:20;3.95;;;0.80;;
75129;SDS011;63703;44.716;37.846;2023-03-29T10:47:53;1.67;;;1.17;;
75129;SDS011;63703;44.716;37.846;2023-03-29T10:50:20;2.03;;;1.63;;
75129;SDS011;63703;44.716;37.846;2023-03-29T10:52:46;1.60;;;1.42;;
75129;SDS011;63703;44.716;37.846;2023-03-29T10:55:12;1.67;;;1.42;;
75129;SDS011;63703;44.716;37.846;2023-03-29T11:00:22;2.33;;;1.90;;
75129;SDS011;63703;44.716;37.846;2023-03-29T11:06:26;1.90;;;1.42;;
75129;SDS011;63703;44.716;37.846;2023-03-29T11:09:00;1.63;;;1.17;;
75129;SDS011;63703;44.716;37.846;2023-03-29T11:11:42;1.75;;;1.33;;
75129;SDS011;63703;44.716;37.846;2023-03-29T11:28:27;1.55;;;1.08;;
75129;SDS011;63703;44.716;37.846;2023-03-29T11:34:03;2.58;;;1.85;;
75129;SDS011;63703;44.716;37.846;2023-03-29T11:36:35;2.35;;;1.02;;
75129;SDS011;63703;44.716;37.846;2023-03-29T11:41:57;2.28;;;1.73;;
75129;SDS011;63703;44.716;37.846;2023-03-29T11:44:32;2.65;;;2.45;;
75129;SDS011;63703;44.716;37.846;2023-03-29T11:47:01;4.15;;;1.08;;
75129;SDS011;63703;44.716;37.846;2023-03-29T11:49:42;3.10;;;1.65;;
75129;SDS011;63703;44.716;37.846;2023-03-29T11:57:37;2.35;;;1.70;;
75129;SDS011;63703;44.716;37.846;2023-03-29T12:00:09;3.83;;;1.90;;
75129;SDS011;63703;44.716;37.846;2023-03-29T12:02:54;3.05;;;1.45;;
75129;SDS011;63703;44.716;37.846;2023-03-29T12:05:31;4.93;;;1.75;;
75129;SDS011;63703;44.716;37.846;2023-03-29T12:08:23;2.78;;;1.27;;
75129;SDS011;63703;44.716;37.846;2023-03-29T12:10:59;2.45;;;1.60;;
75129;SDS011;63703;44.716;37.846;2023-03-29T12:16:02;2.58;;;1.65;;
75129;SDS011;63703;44.716;37.846;2023-03-29T12:18:32;4.80;;;3.38;;
75129;SDS011;63703;44.716;37.846;2023-03-29T12:21:13;3.42;;;1.35;;
75129;SDS011;63703;44.716;37.846;2023-03-29T12:23:42;4.18;;;1.77;;
75129;SDS011;63703;44.716;37.846;2023-03-29T12:29:17;3.90;;;1.80;;
75129;SDS011;63703;44.716;37.846;2023-03-29T12:32:13;3.30;;;2.03;;
75129;SDS011;63703;44.716;37.846;2023-03-29T12:38:22;2.65;;;1.88;;
75129;SDS011;63703;44.716;37.846;2023-03-29T12:41:16;3.83;;;2.35;;
75129;SDS011;63703;44.716;37.846;2023-03-29T12:44:02;3.03;;;2.00;;
75129;SDS011;63703;44.716;37.846;2023-03-29T12:46:52;3.85;;;1.40;;
75129;SDS011;63703;44.716;37.846;2023-03-29T12:49:25;4.72;;;2.72;;
75129;SDS011;63703;44.716;37.846;2023-03-29T12:51:55;3.70;;;2.00;;
75129;SDS011;63703;44.716;37.846;2023-03-29T12:54:26;3.15;;;1.58;;
75129;SDS011;63703;44.716;37.846;2023-03-29T12:56:56;3.25;;;1.77;;
75129;SDS011;63703;44.716;37.846;2023-03-29T12:59:43;4.07;;;2.10;;
75129;SDS011;63703;44.716;37.846;2023-03-29T13:04:54;3.35;;;1.60;;
75129;SDS011;63703;44.716;37.846;2023-03-29T13:09:48;2.13;;;1.23;;
75129;SDS011;63703;44.716;37.846;2023-03-29T13:12:19;7.28;;;2.05;;
75129;SDS011;63703;44.716;37.846;2023-03-29T13:14:51;7.70;;;1.85;;
75129;SDS011;63703;44.716;37.846;2023-03-29T13:46:01;3.55;;;2.10;;
75129;SDS011;63703;44.716;37.846;2023-03-29T13:48:30;3.88;;;1.27;;
75129;SDS011;63703;44.716;37.846;2023-03-29T13:53:48;2.70;;;2.17;;
75129;SDS011;63703;44.716;37.846;2023-03-29T13:56:39;3.70;;;1.58;;
75129;SDS011;63703;44.716;37.846;2023-03-29T13:59:17;4.13;;;2.10;;
75129;SDS011;63703;44.716;37.846;2023-03-29T14:01:51;3.42;;;1.98;;
75129;SDS011;63703;44.716;37.846;2023-03-29T14:04:23;2.55;;;1.73;;
75129;SDS011;63703;44.716;37.846;2023-03-29T14:07:02;2.45;;;1.80;;
75129;SDS011;63703;44.716;37.846;2023-03-29T14:09:31;3.80;;;2.50;;
75129;SDS011;63703;44.716;37.846;2023-03-29T14:12:02;3.58;;;1.88;;
75129;SDS011;63703;44.716;37.846;2023-03-29T14:14:29;3.55;;;3.03;;
75129;SDS011;63703;44.716;37.846;2023-03-29T14:16:57;3.35;;;3.05;;
75129;SDS011;63703;44.716;37.846;2023-03-29T14:19:28;4.18;;;2.20;;
75129;SDS011;63703;44.716;37.846;2023-03-29T14:21:56;3.92;;;2.90;;
75129;SDS011;63703;44.716;37.846;2023-03-29T14:24:32;6.38;;;2.45;;
75129;SDS011;63703;44.716;37.846;2023-03-29T14:27:02;3.38;;;2.45;;
75129;SDS011;63703;44.716;37.846;2023-03-29T14:29:30;3.58;;;2.25;;
75129;SDS011;63703;44.716;37.846;2023-03-29T14:32:10;3.92;;;2.08;;
75129;SDS011;63703;44.716;37.846;2023-03-29T14:34:38;3.75;;;3.28;;
75129;SDS011;63703;44.716;37.846;2023-03-29T14:37:05;3.85;;;2.35;;
75129;SDS011;63703;44.716;37.846;2023-03-29T14:39:33;2.83;;;1.40;;
75129;SDS011;63703;44.716;37.846;2023-03-29T14:41:59;2.15;;;1.27;;
75129;SDS011;63703;44.716;37.846;2023-03-29T14:44:30;2.90;;;1.88;;
75129;SDS011;63703;44.716;37.846;2023-03-29T14:47:01;3.70;;;1.77;;
75129;SDS011;63703;44.716;37.846;2023-03-29T14:49:28;3.72;;;2.80;;
75129;SDS011;63703;44.716;37.846;2023-03-29T14:51:54;3.67;;;1.70;;
75129;SDS011;63703;44.716;37.846;2023-03-29T14:54:22;2.80;;;1.50;;
75129;SDS011;63703;44.716;37.846;2023-03-29T14:56:51;4.05;;;2.78;;
75129;SDS011;63703;44.716;37.846;2023-03-29T15:01:51;3.53;;;2.50;;
75129;SDS011;63703;44.716;37.846;2023-03-29T15:04:17;3.05;;;2.70;;
75129;SDS011;63703;44.716;37.846;2023-03-29T15:06:43;2.95;;;2.13;;
75129;SDS011;63703;44.716;37.846;2023-03-29T15:09:23;3.53;;;2.17;;
75129;SDS011;63703;44.716;37.846;2023-03-29T15:11:56;4.93;;;1.92;;
75129;SDS011;63703;44.716;37.846;2023-03-29T15:14:24;3.25;;;2.15;;
75129;SDS011;63703;44.716;37.846;2023-03-29T15:16:54;5.32;;;1.98;;
75129;SDS011;63703;44.716;37.846;2023-03-29T15:19:25;3.28;;;2.30;;
75129;SDS011;63703;44.716;37.846;2023-03-29T15:21:52;2.95;;;2.13;;
75129;SDS011;63703;44.716;37.846;2023-03-29T15:24:28;4.40;;;2.30;;
75129;SDS011;63703;44.716;37.846;2023-03-29T15:26:59;3.28;;;1.65;;
75129;SDS011;63703;44.716;37.846;2023-03-29T15:29:37;3.40;;;2.30;;
75129;SDS011;63703;44.716;37.846;2023-03-29T15:32:08;4.05;;;2.42;;
75129;SDS011;63703;44.716;37.846;2023-03-29T15:34:43;4.75;;;1.92;;
75129;SDS011;63703;44.716;37.846;2023-03-29T15:37:10;5.50;;;3.17;;
75129;SDS011;63703;44.716;37.846;2023-03-29T15:39:38;4.28;;;3.10;;
75129;SDS011;63703;44.716;37.846;2023-03-29T15:42:08;4.78;;;4.15;;
75129;SDS011;63703;44.716;37.846;2023-03-29T15:44:39;3.50;;;2.08;;
75129;SDS011;63703;44.716;37.846;2023-03-29T15:47:08;3.40;;;2.17;;
75129;SDS011;63703;44.716;37.846;2023-03-29T15:49:35;5.47;;;4.10;;
75129;SDS011;63703;44.716;37.846;2023-03-29T15:52:01;4.78;;;3.17;;
75129;SDS011;63703;44.716;37.846;2023-03-29T15:54:27;2.97;;;1.92;;
75129;SDS011;63703;44.716;37.846;2023-03-29T15:56:55;4.25;;;3.50;;
75129;SDS011;63703;44.716;37.846;2023-03-29T15:59:26;3.50;;;3.08;;
75129;SDS011;63703;44.716;37.846;2023-03-29T16:01:52;4.38;;;2.72;;
75129;SDS011;63703;44.716;37.846;2023-03-29T16:04:19;4.22;;;2.88;;
75129;SDS011;63703;44.716;37.846;2023-03-29T16:06:47;3.75;;;2.17;;
75129;SDS011;63703;44.716;37.846;2023-03-29T16:09:15;2.95;;;2.13;;
75129;SDS011;63703;44.716;37.846;2023-03-29T16:11:41;3.55;;;2.75;;
75129;SDS011;63703;44.716;37.846;2023-03-29T16:14:19;5.40;;;3.25;;
75129;SDS011;63703;44.716;37.846;2023-03-29T16:16:53;3.38;;;2.00;;
75129;SDS011;63703;44.716;37.846;2023-03-29T16:19:22;5.93;;;3.60;;
75129;SDS011;63703;44.716;37.846;2023-03-29T16:21:49;6.60;;;4.00;;
75129;SDS011;63703;44.716;37.846;2023-03-29T16:24:16;4.97;;;2.50;;
75129;SDS011;63703;44.716;37.846;2023-03-29T16:26:48;8.52;;;3.40;;
75129;SDS011;63703;44.716;37.846;2023-03-29T16:29:14;3.33;;;2.00;;
75129;SDS011;63703;44.716;37.846;2023-03-29T16:31:41;5.30;;;2.28;;
75129;SDS011;63703;44.716;37.846;2023-03-29T16:34:09;5.28;;;2.72;;
75129;SDS011;63703;44.716;37.846;2023-03-29T16:36:37;5.55;;;2.60;;
75129;SDS011;63703;44.716;37.846;2023-03-29T16:39:04;6.03;;;3.10;;
75129;SDS011;63703;44.716;37.846;2023-03-29T16:41:31;7.60;;;4.60;;
75129;SDS011;63703;44.716;37.846;2023-03-29T16:43:57;6.72;;;3.50;;
75129;SDS011;63703;44.716;37.846;2023-03-29T16:46:24;4.10;;;2.75;;
75129;SDS011;63703;44.716;37.846;2023-03-29T16:48:50;9.27;;;4.50;;
75129;SDS011;63703;44.716;37.846;2023-03-29T16:51:18;6.85;;;4.10;;
75129;SDS011;63703;44.716;37.846;2023-03-29T16:53:45;10.27;;;5.85;;
75129;SDS011;63703;44.716;37.846;2023-03-29T16:56:18;7.80;;;4.65;;
75129;SDS011;63703;44.716;37.846;2023-03-29T16:58:44;6.60;;;4.40;;
75129;SDS011;63703;44.716;37.846;2023-03-29T17:01:12;6.40;;;4.55;;
75129;SDS011;63703;44.716;37.846;2023-03-29T17:03:40;8.85;;;3.38;;
75129;SDS011;63703;44.716;37.846;2023-03-29T17:06:07;8.52;;;3.20;;
75129;SDS011;63703;44.716;37.846;2023-03-29T17:08:34;8.25;;;2.97;;